Voyageur Independent — CFN4292 — position and weather

sailwx.info

Track history (hours):
 
Tides and Currents Weather Stations Pressure Air Temp Water Temp Dewpoint Dewpoint Depression Visibility Wind Speed Wind Dir Waves Ship Positions

Voyageur Independent

Last reported at 2017-Dec-24 07:43 UTC. Time now 2018-Jan-20 15:33 UTC.
Position N 45°14' W 074°15'.
Warning: this ship's position is 27 days out of date.

Length 191 m; draft 6.6 m.

Type: Cargo ship. MMSI: 316607241.

Date/timePositionNaut miles runAvg speedWind from/ knotsBaromVisibWave heightAir tempDewpointWater temp
2017-Dec-24 07:43N 45°14' W 074°15'2 9.6
2017-Dec-24 07:28N 45°14' W 074°11'4 8.1
2017-Dec-24 07:00N 45°13' W 074°06'4 7.3
2017-Dec-24 06:30N 45°14' W 074°01'4 8.0
2017-Dec-24 06:00N 45°16' W 073°57'2 3.1
2017-Dec-24 05:30N 45°18' W 073°56'0 0.0
2017-Dec-24 05:00N 45°18' W 073°56'0 0.0
2017-Dec-24 04:30N 45°18' W 073°56'0 0.0
2017-Dec-24 04:00N 45°18' W 073°56'0 0.0
2017-Dec-24 03:30N 45°18' W 073°56'0 0.0
2017-Dec-24 03:00N 45°18' W 073°56'0 0.0
2017-Dec-24 02:30N 45°18' W 073°56'0 0.0
2017-Dec-24 02:00N 45°18' W 073°56'0 0.0
2017-Dec-24 01:30N 45°18' W 073°56'0 0.0
2017-Dec-24 01:00N 45°18' W 073°56'0 0.0
2017-Dec-24 00:30N 45°18' W 073°56'0 0.0
2017-Dec-24 00:00N 45°18' W 073°56'0 0.0
2017-Dec-23 23:30N 45°18' W 073°56'0 0.0
2017-Dec-23 23:00N 45°18' W 073°56'0 0.0
2017-Dec-23 22:30N 45°18' W 073°56'0 0.7
2017-Dec-23 22:00N 45°18' W 073°56'0 0.1
2017-Dec-23 21:30N 45°18' W 073°56'1 1.3
2017-Dec-23 21:00N 45°19' W 073°55'0 0.4
2017-Dec-23 20:30N 45°19' W 073°55'0 0.1
2017-Dec-23 20:00N 45°19' W 073°55'1 2.2
2017-Dec-23 19:30N 45°20' W 073°55'1 1.2
2017-Dec-23 19:00N 45°20' W 073°54'0 0.8
2017-Dec-23 18:30N 45°20' W 073°53'0 0.0
2017-Dec-23 18:00N 45°20' W 073°53'0 0.0
2017-Dec-23 17:30N 45°20' W 073°53'0 0.1
2017-Dec-23 17:00N 45°20' W 073°53'0 0.0
2017-Dec-23 16:30N 45°20' W 073°53'0 0.0
2017-Dec-23 16:00N 45°20' W 073°53'0 0.0
2017-Dec-23 15:30N 45°20' W 073°53'0 0.0
2017-Dec-23 15:00N 45°20' W 073°53'0 0.0
2017-Dec-23 14:30N 45°20' W 073°53'0 0.1
2017-Dec-23 14:00N 45°20' W 073°53'0 0.6
2017-Dec-23 13:30N 45°20' W 073°53'3 5.2
2017-Dec-23 13:00N 45°22' W 073°50'4 8.5
2017-Dec-23 12:30N 45°24' W 073°45'2 4.7
2017-Dec-23 12:00N 45°25' W 073°42'3 5.7
2017-Dec-23 11:30N 45°24' W 073°38'2 3.9
2017-Dec-23 11:00N 45°24' W 073°35'1 1.8
2017-Dec-23 10:30N 45°24' W 073°34'0 1.0
2017-Dec-23 10:00N 45°24' W 073°33'2 4.2
2017-Dec-23 09:30N 45°25' W 073°30'3 5.8
2017-Dec-23 08:58N 45°28' W 073°30'2 1.3
2017-Dec-23 07:46N 45°30' W 073°31'0 1.2
2017-Dec-23 07:30N 45°30' W 073°31'1 1.8
2017-Dec-23 07:00N 45°31' W 073°31'3 1.4
2017-Dec-23 04:37N 45°34' W 073°30'  
2017-Dec-18 19:24N 45°34' W 073°30'5 3.6
2017-Dec-18 18:02N 45°30' W 073°31'0 2.1
2017-Dec-18 17:59N 45°29' W 073°31'1 3.0
2017-Dec-18 17:30N 45°28' W 073°30'1 2.3
2017-Dec-18 17:00N 45°27' W 073°30'2 3.3
2017-Dec-18 16:30N 45°25' W 073°30'2 4.0
2017-Dec-18 16:00N 45°24' W 073°33'1 0.7
2017-Dec-18 15:03N 45°24' W 073°34'0 0.0
2017-Dec-18 15:00N 45°24' W 073°34'1 1.0
2017-Dec-18 14:30N 45°24' W 073°35'0 0.9
2017-Dec-18 14:00N 45°24' W 073°35'0 0.7
2017-Dec-18 13:30N 45°24' W 073°36'0 0.0
2017-Dec-18 13:00N 45°24' W 073°36'0 0.1
2017-Dec-18 12:30N 45°24' W 073°36'1 2.1
2017-Dec-18 12:00N 45°24' W 073°37'2 3.7
2017-Dec-18 11:30N 45°25' W 073°40'2 4.9
2017-Dec-18 11:00N 45°24' W 073°43'3 5.4
2017-Dec-18 10:30N 45°24' W 073°47'4 7.9
2017-Dec-18 10:00N 45°21' W 073°51'3 5.3
2017-Dec-18 09:30N 45°20' W 073°54'0 0.1
2017-Dec-18 09:00N 45°20' W 073°54'0 0.0
2017-Dec-18 08:30N 45°20' W 073°54'0 0.0
2017-Dec-18 08:00N 45°20' W 073°54'0 0.0
2017-Dec-18 07:30N 45°20' W 073°54'0 0.0
2017-Dec-18 07:00N 45°20' W 073°54'0 0.1
2017-Dec-18 06:30N 45°20' W 073°54'0 0.1
2017-Dec-18 06:00N 45°20' W 073°54'0 0.5
2017-Dec-18 05:30N 45°20' W 073°54'1 1.3
2017-Dec-18 05:00N 45°19' W 073°55'0 0.3
2017-Dec-18 04:30N 45°19' W 073°55'1 1.4
2017-Dec-18 04:00N 45°18' W 073°56'0 0.0
2017-Dec-18 03:30N 45°18' W 073°56'0 1.0
2017-Dec-18 03:00N 45°18' W 073°56'2 4.5
2017-Dec-18 02:30N 45°16' W 073°57'4 7.4
2017-Dec-18 02:00N 45°14' W 074°02'5 9.4
2017-Dec-18 01:30N 45°14' W 074°08'  
Track history (hours):
 
Tides and Currents Weather Stations Pressure Air Temp Water Temp Dewpoint Dewpoint Depression Visibility Wind Speed Wind Dir Waves Ship Positions

Voyageur Independent

Last reported at 2017-Dec-24 07:43 UTC. Time now 2018-Jan-20 15:33 UTC.
Position N 45°14' W 074°15'.
Warning: this ship's position is 27 days out of date.

Length 191 m; draft 6.6 m.

Type: Cargo ship. MMSI: 316607241.

Date/timePositionNaut miles runAvg speedWind from/ knotsBaromVisibWave heightAir tempDewpointWater temp
2017-Dec-24 07:43N 45°14' W 074°15'2 9.6
2017-Dec-24 07:28N 45°14' W 074°11'4 8.1
2017-Dec-24 07:00N 45°13' W 074°06'4 7.3
2017-Dec-24 06:30N 45°14' W 074°01'4 8.0
2017-Dec-24 06:00N 45°16' W 073°57'2 3.1
2017-Dec-24 05:30N 45°18' W 073°56'0 0.0
2017-Dec-24 05:00N 45°18' W 073°56'0 0.0
2017-Dec-24 04:30N 45°18' W 073°56'0 0.0
2017-Dec-24 04:00N 45°18' W 073°56'0 0.0
2017-Dec-24 03:30N 45°18' W 073°56'0 0.0
2017-Dec-24 03:00N 45°18' W 073°56'0 0.0
2017-Dec-24 02:30N 45°18' W 073°56'0 0.0
2017-Dec-24 02:00N 45°18' W 073°56'0 0.0
2017-Dec-24 01:30N 45°18' W 073°56'0 0.0
2017-Dec-24 01:00N 45°18' W 073°56'0 0.0
2017-Dec-24 00:30N 45°18' W 073°56'0 0.0
2017-Dec-24 00:00N 45°18' W 073°56'0 0.0
2017-Dec-23 23:30N 45°18' W 073°56'0 0.0
2017-Dec-23 23:00N 45°18' W 073°56'0 0.0
2017-Dec-23 22:30N 45°18' W 073°56'0 0.7
2017-Dec-23 22:00N 45°18' W 073°56'0 0.1
2017-Dec-23 21:30N 45°18' W 073°56'1 1.3
2017-Dec-23 21:00N 45°19' W 073°55'0 0.4
2017-Dec-23 20:30N 45°19' W 073°55'0 0.1
2017-Dec-23 20:00N 45°19' W 073°55'1 2.2
2017-Dec-23 19:30N 45°20' W 073°55'1 1.2
2017-Dec-23 19:00N 45°20' W 073°54'0 0.8
2017-Dec-23 18:30N 45°20' W 073°53'0 0.0
2017-Dec-23 18:00N 45°20' W 073°53'0 0.0
2017-Dec-23 17:30N 45°20' W 073°53'0 0.1
2017-Dec-23 17:00N 45°20' W 073°53'0 0.0
2017-Dec-23 16:30N 45°20' W 073°53'0 0.0
2017-Dec-23 16:00N 45°20' W 073°53'0 0.0
2017-Dec-23 15:30N 45°20' W 073°53'0 0.0
2017-Dec-23 15:00N 45°20' W 073°53'0 0.0
2017-Dec-23 14:30N 45°20' W 073°53'0 0.1
2017-Dec-23 14:00N 45°20' W 073°53'0 0.6
2017-Dec-23 13:30N 45°20' W 073°53'3 5.2
2017-Dec-23 13:00N 45°22' W 073°50'4 8.5
2017-Dec-23 12:30N 45°24' W 073°45'2 4.7
2017-Dec-23 12:00N 45°25' W 073°42'3 5.7
2017-Dec-23 11:30N 45°24' W 073°38'2 3.9
2017-Dec-23 11:00N 45°24' W 073°35'1 1.8
2017-Dec-23 10:30N 45°24' W 073°34'0 1.0
2017-Dec-23 10:00N 45°24' W 073°33'2 4.2
2017-Dec-23 09:30N 45°25' W 073°30'3 5.8
2017-Dec-23 08:58N 45°28' W 073°30'2 1.3
2017-Dec-23 07:46N 45°30' W 073°31'0 1.2
2017-Dec-23 07:30N 45°30' W 073°31'1 1.8
2017-Dec-23 07:00N 45°31' W 073°31'3 1.4
2017-Dec-23 04:37N 45°34' W 073°30'  
2017-Dec-18 19:24N 45°34' W 073°30'5 3.6
2017-Dec-18 18:02N 45°30' W 073°31'0 2.1
2017-Dec-18 17:59N 45°29' W 073°31'1 3.0
2017-Dec-18 17:30N 45°28' W 073°30'1 2.3
2017-Dec-18 17:00N 45°27' W 073°30'2 3.3
2017-Dec-18 16:30N 45°25' W 073°30'2 4.0
2017-Dec-18 16:00N 45°24' W 073°33'1 0.7
2017-Dec-18 15:03N 45°24' W 073°34'0 0.0
2017-Dec-18 15:00N 45°24' W 073°34'1 1.0
2017-Dec-18 14:30N 45°24' W 073°35'0 0.9
2017-Dec-18 14:00N 45°24' W 073°35'0 0.7
2017-Dec-18 13:30N 45°24' W 073°36'0 0.0
2017-Dec-18 13:00N 45°24' W 073°36'0 0.1
2017-Dec-18 12:30N 45°24' W 073°36'1 2.1
2017-Dec-18 12:00N 45°24' W 073°37'2 3.7
2017-Dec-18 11:30N 45°25' W 073°40'2 4.9
2017-Dec-18 11:00N 45°24' W 073°43'3 5.4
2017-Dec-18 10:30N 45°24' W 073°47'4 7.9
2017-Dec-18 10:00N 45°21' W 073°51'3 5.3
2017-Dec-18 09:30N 45°20' W 073°54'0 0.1
2017-Dec-18 09:00N 45°20' W 073°54'0 0.0
2017-Dec-18 08:30N 45°20' W 073°54'0 0.0
2017-Dec-18 08:00N 45°20' W 073°54'0 0.0
2017-Dec-18 07:30N 45°20' W 073°54'0 0.0
2017-Dec-18 07:00N 45°20' W 073°54'0 0.1
2017-Dec-18 06:30N 45°20' W 073°54'0 0.1
2017-Dec-18 06:00N 45°20' W 073°54'0 0.5
2017-Dec-18 05:30N 45°20' W 073°54'1 1.3
2017-Dec-18 05:00N 45°19' W 073°55'0 0.3
2017-Dec-18 04:30N 45°19' W 073°55'1 1.4
2017-Dec-18 04:00N 45°18' W 073°56'0 0.0
2017-Dec-18 03:30N 45°18' W 073°56'0 1.0
2017-Dec-18 03:00N 45°18' W 073°56'2 4.5
2017-Dec-18 02:30N 45°16' W 073°57'4 7.4
2017-Dec-18 02:00N 45°14' W 074°02'5 9.4
2017-Dec-18 01:30N 45°14' W 074°08'  

Dump ship's entire track history